sensor_id;sensor_type;location;lat;lon;timestamp;pressure;altitude;pressure_sealevel;temperature;humidity
51496;BME280;37572;52.094;4.870;2023-06-19T00:00:37;100792.81;;;26.68;39.76
51496;BME280;37572;52.094;4.870;2023-06-19T00:03:04;100794.41;;;26.58;39.62
51496;BME280;37572;52.094;4.870;2023-06-19T00:05:29;100799.56;;;26.55;39.70
51496;BME280;37572;52.094;4.870;2023-06-19T00:07:54;100798.13;;;26.47;40.12
51496;BME280;37572;52.094;4.870;2023-06-19T00:10:20;100798.66;;;26.44;40.62
51496;BME280;37572;52.094;4.870;2023-06-19T00:12:45;100800.84;;;26.42;40.38
51496;BME280;37572;52.094;4.870;2023-06-19T00:15:11;100795.09;;;26.38;40.96
51496;BME280;37572;52.094;4.870;2023-06-19T00:17:36;100796.41;;;26.36;41.31
51496;BME280;37572;52.094;4.870;2023-06-19T00:20:05;100789.28;;;26.30;41.16
51496;BME280;37572;52.094;4.870;2023-06-19T00:22:32;100790.06;;;26.25;41.85
51496;BME280;37572;52.094;4.870;2023-06-19T00:24:58;100784.59;;;26.20;42.04
51496;BME280;37572;52.094;4.870;2023-06-19T00:27:23;100796.81;;;26.17;42.24
51496;BME280;37572;52.094;4.870;2023-06-19T00:29:50;100791.06;;;26.14;42.49
51496;BME280;37572;52.094;4.870;2023-06-19T00:32:16;100789.66;;;26.11;42.97
51496;BME280;37572;52.094;4.870;2023-06-19T00:34:41;100794.03;;;26.07;43.20
51496;BME280;37572;52.094;4.870;2023-06-19T00:37:08;100804.34;;;26.00;43.76
51496;BME280;37572;52.094;4.870;2023-06-19T00:39:34;100801.19;;;25.91;44.33
51496;BME280;37572;52.094;4.870;2023-06-19T00:42:00;100798.13;;;25.82;44.56
51496;BME280;37572;52.094;4.870;2023-06-19T00:44:25;100795.34;;;25.77;44.80
51496;BME280;37572;52.094;4.870;2023-06-19T00:46:59;100803.53;;;25.77;44.89
51496;BME280;37572;52.094;4.870;2023-06-19T00:49:26;100799.69;;;25.73;45.33
51496;BME280;37572;52.094;4.870;2023-06-19T00:51:52;100800.72;;;25.67;45.67
51496;BME280;37572;52.094;4.870;2023-06-19T00:54:19;100804.22;;;25.62;45.63
51496;BME280;37572;52.094;4.870;2023-06-19T00:56:44;100810.16;;;25.59;45.89
51496;BME280;37572;52.094;4.870;2023-06-19T00:59:16;100807.34;;;25.49;46.26
51496;BME280;37572;52.094;4.870;2023-06-19T01:01:43;100813.50;;;25.39;46.95
51496;BME280;37572;52.094;4.870;2023-06-19T01:04:08;100818.88;;;25.34;46.78
51496;BME280;37572;52.094;4.870;2023-06-19T01:06:48;100825.84;;;25.25;47.23
51496;BME280;37572;52.094;4.870;2023-06-19T01:09:16;100819.25;;;25.21;47.65
51496;BME280;37572;52.094;4.870;2023-06-19T01:11:54;100832.81;;;25.16;47.90
51496;BME280;37572;52.094;4.870;2023-06-19T01:14:32;100833.81;;;25.09;48.61
51496;BME280;37572;52.094;4.870;2023-06-19T01:16:58;100832.69;;;25.05;48.67
51496;BME280;37572;52.094;4.870;2023-06-19T01:19:24;100827.47;;;25.04;48.49
51496;BME280;37572;52.094;4.870;2023-06-19T01:21:51;100843.81;;;25.04;48.98
51496;BME280;37572;52.094;4.870;2023-06-19T01:24:16;100844.25;;;24.96;49.79
51496;BME280;37572;52.094;4.870;2023-06-19T01:26:41;100845.56;;;24.93;49.38
51496;BME280;37572;52.094;4.870;2023-06-19T01:29:11;100841.72;;;24.89;49.91
51496;BME280;37572;52.094;4.870;2023-06-19T01:31:52;100844.13;;;24.85;49.83
51496;BME280;37572;52.094;4.870;2023-06-19T01:34:20;100843.19;;;24.80;50.08
51496;BME280;37572;52.094;4.870;2023-06-19T01:36:48;100843.47;;;24.78;50.65
51496;BME280;37572;52.094;4.870;2023-06-19T01:39:15;100843.97;;;24.75;50.76
51496;BME280;37572;52.094;4.870;2023-06-19T01:41:42;100842.75;;;24.66;51.33
51496;BME280;37572;52.094;4.870;2023-06-19T01:44:08;100839.69;;;24.62;51.13
51496;BME280;37572;52.094;4.870;2023-06-19T01:46:34;100835.31;;;24.61;51.46
51496;BME280;37572;52.094;4.870;2023-06-19T01:48:59;100827.66;;;24.58;51.52
51496;BME280;37572;52.094;4.870;2023-06-19T01:51:25;100830.97;;;24.60;51.42
51496;BME280;37572;52.094;4.870;2023-06-19T01:53:50;100836.97;;;24.62;51.56
51496;BME280;37572;52.094;4.870;2023-06-19T01:56:15;100833.75;;;24.65;51.36
51496;BME280;37572;52.094;4.870;2023-06-19T01:58:41;100834.56;;;24.66;52.34
51496;BME280;37572;52.094;4.870;2023-06-19T02:01:06;100837.28;;;24.66;52.19
51496;BME280;37572;52.094;4.870;2023-06-19T02:03:31;100842.66;;;24.61;52.24
51496;BME280;37572;52.094;4.870;2023-06-19T02:05:57;100836.91;;;24.57;52.64
51496;BME280;37572;52.094;4.870;2023-06-19T02:08:22;100831.09;;;24.53;52.59
51496;BME280;37572;52.094;4.870;2023-06-19T02:10:47;100839.50;;;24.52;52.39
51496;BME280;37572;52.094;4.870;2023-06-19T02:13:12;100841.91;;;24.48;52.80
51496;BME280;37572;52.094;4.870;2023-06-19T02:15:38;100837.22;;;24.44;53.09
51496;BME280;37572;52.094;4.870;2023-06-19T02:18:03;100840.41;;;24.41;52.81
51496;BME280;37572;52.094;4.870;2023-06-19T02:20:30;100845.63;;;24.42;52.72
51496;BME280;37572;52.094;4.870;2023-06-19T02:22:55;100840.75;;;24.44;52.87
51496;BME280;37572;52.094;4.870;2023-06-19T02:25:20;100844.03;;;24.46;52.74
51496;BME280;37572;52.094;4.870;2023-06-19T02:27:46;100844.88;;;24.47;53.13
51496;BME280;37572;52.094;4.870;2023-06-19T02:30:11;100839.19;;;24.48;53.23
51496;BME280;37572;52.094;4.870;2023-06-19T02:32:36;100839.69;;;24.45;53.13
51496;BME280;37572;52.094;4.870;2023-06-19T02:35:06;100842.16;;;24.47;53.16
51496;BME280;37572;52.094;4.870;2023-06-19T02:37:33;100841.84;;;24.43;53.43
51496;BME280;37572;52.094;4.870;2023-06-19T02:40:02;100846.69;;;24.41;53.45
51496;BME280;37572;52.094;4.870;2023-06-19T02:42:28;100851.06;;;24.42;53.66
51496;BME280;37572;52.094;4.870;2023-06-19T02:44:53;100845.84;;;24.41;53.87
51496;BME280;37572;52.094;4.870;2023-06-19T02:47:19;100853.22;;;24.40;53.48
51496;BME280;37572;52.094;4.870;2023-06-19T02:49:44;100858.81;;;24.33;53.65
51496;BME280;37572;52.094;4.870;2023-06-19T02:52:09;100851.97;;;24.31;54.10
51496;BME280;37572;52.094;4.870;2023-06-19T02:54:35;100856.00;;;24.28;54.68
51496;BME280;37572;52.094;4.870;2023-06-19T02:57:00;100863.94;;;24.30;54.14
51496;BME280;37572;52.094;4.870;2023-06-19T02:59:25;100855.41;;;24.26;54.67
51496;BME280;37572;52.094;4.870;2023-06-19T03:01:50;100869.69;;;24.16;55.63
51496;BME280;37572;52.094;4.870;2023-06-19T03:04:16;100869.31;;;24.13;55.90
51496;BME280;37572;52.094;4.870;2023-06-19T03:06:42;100870.16;;;24.13;55.83
51496;BME280;37572;52.094;4.870;2023-06-19T03:09:08;100869.31;;;24.13;56.06
51496;BME280;37572;52.094;4.870;2023-06-19T03:11:40;100865.69;;;24.07;56.10
51496;BME280;37572;52.094;4.870;2023-06-19T03:14:06;100868.09;;;24.04;56.41
51496;BME280;37572;52.094;4.870;2023-06-19T03:16:33;100867.84;;;24.05;56.16
51496;BME280;37572;52.094;4.870;2023-06-19T03:18:59;100881.94;;;24.02;56.46
51496;BME280;37572;52.094;4.870;2023-06-19T03:21:25;100884.41;;;24.04;56.74
51496;BME280;37572;52.094;4.870;2023-06-19T03:23:51;100881.13;;;24.01;56.65
51496;BME280;37572;52.094;4.870;2023-06-19T03:26:18;100887.59;;;24.00;56.60
51496;BME280;37572;52.094;4.870;2023-06-19T03:28:43;100897.06;;;23.98;57.08
51496;BME280;37572;52.094;4.870;2023-06-19T03:31:09;100897.59;;;23.95;57.22
51496;BME280;37572;52.094;4.870;2023-06-19T03:33:34;100899.94;;;23.91;57.31
51496;BME280;37572;52.094;4.870;2023-06-19T03:35:59;100898.53;;;23.89;56.98
51496;BME280;37572;52.094;4.870;2023-06-19T03:38:25;100904.78;;;23.89;57.43
51496;BME280;37572;52.094;4.870;2023-06-19T03:40:50;100910.22;;;23.89;57.31
51496;BME280;37572;52.094;4.870;2023-06-19T03:43:15;100902.06;;;23.89;57.22
51496;BME280;37572;52.094;4.870;2023-06-19T03:45:41;100922.19;;;23.88;56.68
51496;BME280;37572;52.094;4.870;2023-06-19T03:48:06;100928.69;;;23.87;56.51
51496;BME280;37572;52.094;4.870;2023-06-19T03:50:31;100930.94;;;23.90;56.38
51496;BME280;37572;52.094;4.870;2023-06-19T03:52:58;100946.75;;;23.93;56.58
51496;BME280;37572;52.094;4.870;2023-06-19T03:55:23;100946.25;;;23.96;56.46
51496;BME280;37572;52.094;4.870;2023-06-19T03:57:49;100952.31;;;23.98;56.51
51496;BME280;37572;52.094;4.870;2023-06-19T04:00:15;100951.22;;;23.99;56.20
51496;BME280;37572;52.094;4.870;2023-06-19T04:02:43;100960.47;;;23.98;55.80
51496;BME280;37572;52.094;4.870;2023-06-19T04:05:11;100962.09;;;23.99;55.36
51496;BME280;37572;52.094;4.870;2023-06-19T04:07:36;100958.56;;;23.99;55.30
51496;BME280;37572;52.094;4.870;2023-06-19T04:10:02;100967.06;;;24.02;55.55
51496;BME280;37572;52.094;4.870;2023-06-19T04:12:27;100968.72;;;24.04;55.54
51496;BME280;37572;52.094;4.870;2023-06-19T04:14:52;100981.84;;;24.07;55.07
51496;BME280;37572;52.094;4.870;2023-06-19T04:17:18;100974.72;;;24.06;55.01
51496;BME280;37572;52.094;4.870;2023-06-19T04:19:43;100986.19;;;24.08;55.16
51496;BME280;37572;52.094;4.870;2023-06-19T04:22:09;100977.78;;;24.09;55.23
51496;BME280;37572;52.094;4.870;2023-06-19T04:24:35;100984.03;;;24.10;55.27
51496;BME280;37572;52.094;4.870;2023-06-19T04:27:00;100984.88;;;24.10;55.01
51496;BME280;37572;52.094;4.870;2023-06-19T04:29:25;100986.75;;;24.10;54.98
51496;BME280;37572;52.094;4.870;2023-06-19T04:31:51;101006.31;;;24.07;55.01
51496;BME280;37572;52.094;4.870;2023-06-19T04:34:17;101004.06;;;24.04;54.58
51496;BME280;37572;52.094;4.870;2023-06-19T04:36:49;101016.81;;;24.03;54.51
51496;BME280;37572;52.094;4.870;2023-06-19T04:39:14;101015.66;;;23.99;54.30
51496;BME280;37572;52.094;4.870;2023-06-19T04:41:43;101023.25;;;23.97;54.66
51496;BME280;37572;52.094;4.870;2023-06-19T04:44:09;101021.25;;;23.92;54.52
51496;BME280;37572;52.094;4.870;2023-06-19T04:46:37;101020.31;;;23.87;54.61
51496;BME280;37572;52.094;4.870;2023-06-19T04:49:03;101038.59;;;23.79;54.24
51496;BME280;37572;52.094;4.870;2023-06-19T04:51:30;101037.69;;;23.74;54.42
51496;BME280;37572;52.094;4.870;2023-06-19T04:53:55;101037.09;;;23.72;54.55
51496;BME280;37572;52.094;4.870;2023-06-19T04:56:20;101036.47;;;23.70;54.40
51496;BME280;37572;52.094;4.870;2023-06-19T04:58:46;101031.03;;;23.70;54.32
51496;BME280;37572;52.094;4.870;2023-06-19T05:01:12;101034.38;;;23.72;54.70
51496;BME280;37572;52.094;4.870;2023-06-19T05:03:39;101036.00;;;23.73;54.21
51496;BME280;37572;52.094;4.870;2023-06-19T05:06:04;101040.41;;;23.74;54.77
51496;BME280;37572;52.094;4.870;2023-06-19T05:08:30;101039.81;;;23.72;54.37
51496;BME280;37572;52.094;4.870;2023-06-19T05:10:55;101042.53;;;23.72;54.51
51496;BME280;37572;52.094;4.870;2023-06-19T05:13:21;101049.03;;;23.71;54.73
51496;BME280;37572;52.094;4.870;2023-06-19T05:15:46;101057.66;;;23.68;54.01
51496;BME280;37572;52.094;4.870;2023-06-19T05:18:12;101064.41;;;23.65;54.09
51496;BME280;37572;52.094;4.870;2023-06-19T05:20:37;101064.53;;;23.58;54.25
51496;BME280;37572;52.094;4.870;2023-06-19T05:23:02;101066.03;;;23.54;54.15
51496;BME280;37572;52.094;4.870;2023-06-19T05:25:28;101066.50;;;23.51;54.11
51496;BME280;37572;52.094;4.870;2023-06-19T05:27:53;101070.31;;;23.50;54.11
51496;BME280;37572;52.094;4.870;2023-06-19T05:30:18;101070.31;;;23.50;54.23
51496;BME280;37572;52.094;4.870;2023-06-19T05:32:44;101062.75;;;23.52;54.33
51496;BME280;37572;52.094;4.870;2023-06-19T05:35:09;101063.31;;;23.54;54.05
51496;BME280;37572;52.094;4.870;2023-06-19T05:37:34;101072.91;;;23.57;53.65
51496;BME280;37572;52.094;4.870;2023-06-19T05:40:00;101078.81;;;23.54;53.95
51496;BME280;37572;52.094;4.870;2023-06-19T05:42:25;101084.47;;;23.52;53.89
51496;BME280;37572;52.094;4.870;2023-06-19T05:44:50;101083.03;;;23.50;53.61
51496;BME280;37572;52.094;4.870;2023-06-19T05:47:16;101083.03;;;23.50;54.15
51496;BME280;37572;52.094;4.870;2023-06-19T05:49:42;101083.03;;;23.50;53.69
51496;BME280;37572;52.094;4.870;2023-06-19T05:52:08;101085.28;;;23.53;53.67
51496;BME280;37572;52.094;4.870;2023-06-19T05:54:33;101094.31;;;23.53;53.58
51496;BME280;37572;52.094;4.870;2023-06-19T05:56:58;101094.66;;;23.57;53.50
51496;BME280;37572;52.094;4.870;2023-06-19T05:59:24;101102.91;;;23.62;54.10
51496;BME280;37572;52.094;4.870;2023-06-19T06:01:50;101103.03;;;23.67;53.82
51496;BME280;37572;52.094;4.870;2023-06-19T06:04:18;101106.44;;;23.74;53.29
51496;BME280;37572;52.094;4.870;2023-06-19T06:06:43;101111.66;;;23.76;52.94
51496;BME280;37572;52.094;4.870;2023-06-19T06:09:09;101113.56;;;23.75;52.99
51496;BME280;37572;52.094;4.870;2023-06-19T06:11:37;101114.97;;;23.78;52.88
51496;BME280;37572;52.094;4.870;2023-06-19T06:14:02;101125.16;;;23.82;52.90
51496;BME280;37572;52.094;4.870;2023-06-19T06:16:28;101135.56;;;23.86;52.93
51496;BME280;37572;52.094;4.870;2023-06-19T06:18:53;101132.84;;;23.86;52.41
51496;BME280;37572;52.094;4.870;2023-06-19T06:21:18;101137.47;;;23.85;51.94
51496;BME280;37572;52.094;4.870;2023-06-19T06:23:43;101139.34;;;23.85;51.88
51496;BME280;37572;52.094;4.870;2023-06-19T06:26:10;101145.25;;;23.81;52.36
51496;BME280;37572;52.094;4.870;2023-06-19T06:28:35;101145.72;;;23.78;51.80
51496;BME280;37572;52.094;4.870;2023-06-19T06:31:00;101152.66;;;23.74;51.94
51496;BME280;37572;52.094;4.870;2023-06-19T06:33:29;101169.22;;;23.73;52.00
51496;BME280;37572;52.094;4.870;2023-06-19T06:35:57;101167.47;;;23.67;51.90
51496;BME280;37572;52.094;4.870;2023-06-19T06:38:23;101166.25;;;23.62;52.00
51496;BME280;37572;52.094;4.870;2023-06-19T06:40:48;101172.16;;;23.59;52.00
51496;BME280;37572;52.094;4.870;2023-06-19T06:43:14;101178.06;;;23.56;52.37
51496;BME280;37572;52.094;4.870;2023-06-19T06:45:39;101184.09;;;23.58;52.42
51496;BME280;37572;52.094;4.870;2023-06-19T06:48:06;101182.78;;;23.61;51.86
51496;BME280;37572;52.094;4.870;2023-06-19T06:50:32;101186.72;;;23.65;52.20
51496;BME280;37572;52.094;4.870;2023-06-19T06:52:57;101190.59;;;23.69;51.95
51496;BME280;37572;52.094;4.870;2023-06-19T06:55:22;101192.84;;;23.72;51.76
51496;BME280;37572;52.094;4.870;2023-06-19T06:57:48;101205.16;;;23.75;51.44
51496;BME280;37572;52.094;4.870;2023-06-19T07:00:13;101200.91;;;23.79;51.42
51496;BME280;37572;52.094;4.870;2023-06-19T07:02:39;101208.16;;;23.85;51.46
51496;BME280;37572;52.094;4.870;2023-06-19T07:05:08;101209.56;;;23.88;51.57
51496;BME280;37572;52.094;4.870;2023-06-19T07:07:34;101205.56;;;23.90;51.41
51496;BME280;37572;52.094;4.870;2023-06-19T07:09:59;101215.00;;;23.99;51.12
51496;BME280;37572;52.094;4.870;2023-06-19T07:12:24;101218.34;;;24.13;50.87
51496;BME280;37572;52.094;4.870;2023-06-19T07:14:53;101215.97;;;24.29;50.72
51496;BME280;37572;52.094;4.870;2023-06-19T07:17:18;101223.84;;;24.54;50.37
51496;BME280;37572;52.094;4.870;2023-06-19T07:19:43;101224.41;;;24.80;49.92
51496;BME280;37572;52.094;4.870;2023-06-19T07:22:09;101231.91;;;25.01;49.48
51496;BME280;37572;52.094;4.870;2023-06-19T07:24:34;101240.53;;;25.10;49.10
51496;BME280;37572;52.094;4.870;2023-06-19T07:26:59;101232.72;;;25.14;48.84
51496;BME280;37572;52.094;4.870;2023-06-19T07:29:25;101246.25;;;25.08;48.56
51496;BME280;37572;52.094;4.870;2023-06-19T07:31:51;101228.38;;;25.01;48.58
51496;BME280;37572;52.094;4.870;2023-06-19T07:34:16;101233.56;;;25.02;48.56
51496;BME280;37572;52.094;4.870;2023-06-19T07:36:42;101232.91;;;25.24;48.77
51496;BME280;37572;52.094;4.870;2023-06-19T07:39:07;101235.47;;;25.59;48.58
51496;BME280;37572;52.094;4.870;2023-06-19T07:41:32;101236.31;;;25.94;47.73
51496;BME280;37572;52.094;4.870;2023-06-19T07:43:57;101248.28;;;26.27;47.37
51496;BME280;37572;52.094;4.870;2023-06-19T07:46:23;101247.13;;;26.62;46.68
51496;BME280;37572;52.094;4.870;2023-06-19T07:48:48;101243.16;;;26.91;45.82
51496;BME280;37572;52.094;4.870;2023-06-19T07:51:14;101254.84;;;27.09;45.17
51496;BME280;37572;52.094;4.870;2023-06-19T07:53:39;101243.94;;;27.14;45.23
51496;BME280;37572;52.094;4.870;2023-06-19T07:56:05;101243.66;;;27.10;44.79
51496;BME280;37572;52.094;4.870;2023-06-19T07:58:30;101248.56;;;27.08;45.09
51496;BME280;37572;52.094;4.870;2023-06-19T08:00:55;101249.88;;;27.06;44.54
51496;BME280;37572;52.094;4.870;2023-06-19T08:03:21;101249.75;;;26.95;44.64
51496;BME280;37572;52.094;4.870;2023-06-19T08:05:47;101249.59;;;26.80;44.16
51496;BME280;37572;52.094;4.870;2023-06-19T08:08:12;101242.09;;;26.70;44.73
51496;BME280;37572;52.094;4.870;2023-06-19T08:10:38;101247.47;;;26.65;44.72
51496;BME280;37572;52.094;4.870;2023-06-19T08:13:03;101253.19;;;26.64;44.45
51496;BME280;37572;52.094;4.870;2023-06-19T08:15:29;101242.34;;;26.69;45.21
51496;BME280;37572;52.094;4.870;2023-06-19T08:17:54;101249.59;;;26.80;44.91
51496;BME280;37572;52.094;4.870;2023-06-19T08:20:20;101250.22;;;26.87;45.08
51496;BME280;37572;52.094;4.870;2023-06-19T08:22:45;101255.66;;;26.87;44.70
51496;BME280;37572;52.094;4.870;2023-06-19T08:25:11;101257.22;;;26.78;45.09
51496;BME280;37572;52.094;4.870;2023-06-19T08:27:37;101274.44;;;26.62;44.93
51496;BME280;37572;52.094;4.870;2023-06-19T08:30:02;101275.31;;;26.45;45.71
51496;BME280;37572;52.094;4.870;2023-06-19T08:32:28;101276.16;;;26.29;45.82
51496;BME280;37572;52.094;4.870;2023-06-19T08:34:53;101290.06;;;26.10;45.83
51496;BME280;37572;52.094;4.870;2023-06-19T08:37:19;101287.91;;;25.95;46.20
51496;BME280;37572;52.094;4.870;2023-06-19T08:39:44;101289.19;;;25.93;46.61
51496;BME280;37572;52.094;4.870;2023-06-19T08:42:09;101298.91;;;26.00;46.70
51496;BME280;37572;52.094;4.870;2023-06-19T08:44:36;101296.03;;;26.07;46.54
51496;BME280;37572;52.094;4.870;2023-06-19T08:47:02;101304.44;;;26.06;46.43
51496;BME280;37572;52.094;4.870;2023-06-19T08:49:33;101299.28;;;25.92;46.38
51496;BME280;37572;52.094;4.870;2023-06-19T08:51:59;101295.81;;;25.80;46.46
51496;BME280;37572;52.094;4.870;2023-06-19T08:54:24;101300.50;;;25.67;46.65
51496;BME280;37572;52.094;4.870;2023-06-19T08:56:50;101300.06;;;25.59;46.96
51496;BME280;37572;52.094;4.870;2023-06-19T08:59:18;101292.63;;;25.54;46.97
51496;BME280;37572;52.094;4.870;2023-06-19T09:01:49;101289.91;;;25.54;47.28
51496;BME280;37572;52.094;4.870;2023-06-19T09:04:18;101293.56;;;25.60;47.47
51496;BME280;37572;52.094;4.870;2023-06-19T09:06:49;101309.63;;;25.73;47.36
51496;BME280;37572;52.094;4.870;2023-06-19T09:09:15;101300.88;;;25.88;47.20
51496;BME280;37572;52.094;4.870;2023-06-19T09:11:41;101304.13;;;26.02;46.95
51496;BME280;37572;52.094;4.870;2023-06-19T09:14:09;101311.16;;;26.15;46.78
51496;BME280;37572;52.094;4.870;2023-06-19T09:16:41;101304.69;;;26.21;46.40
51496;BME280;37572;52.094;4.870;2023-06-19T09:19:07;101315.03;;;26.19;45.95
51496;BME280;37572;52.094;4.870;2023-06-19T09:21:36;101310.81;;;26.11;46.35
51496;BME280;37572;52.094;4.870;2023-06-19T09:24:06;101321.38;;;26.08;46.45
51496;BME280;37572;52.094;4.870;2023-06-19T09:26:33;101324.13;;;26.08;46.78
51496;BME280;37572;52.094;4.870;2023-06-19T09:28:58;101329.91;;;26.11;46.80
51496;BME280;37572;52.094;4.870;2023-06-19T09:31:34;101331.06;;;26.15;46.61
51496;BME280;37572;52.094;4.870;2023-06-19T09:33:59;101339.25;;;26.15;46.29
51496;BME280;37572;52.094;4.870;2023-06-19T09:36:25;101344.22;;;26.18;46.59
51496;BME280;37572;52.094;4.870;2023-06-19T09:38:52;101348.34;;;26.21;46.30
51496;BME280;37572;52.094;4.870;2023-06-19T09:41:19;101346.38;;;26.16;46.35
51496;BME280;37572;52.094;4.870;2023-06-19T09:43:47;101356.13;;;26.12;46.87
51496;BME280;37572;52.094;4.870;2023-06-19T09:46:14;101351.25;;;26.14;46.46
51496;BME280;37572;52.094;4.870;2023-06-19T09:48:42;101358.44;;;26.20;46.18
51496;BME280;37572;52.094;4.870;2023-06-19T09:51:20;101362.31;;;26.25;46.01
51496;BME280;37572;52.094;4.870;2023-06-19T09:53:46;101360.53;;;26.30;46.02
51496;BME280;37572;52.094;4.870;2023-06-19T09:56:13;101360.59;;;26.35;45.98
51496;BME280;37572;52.094;4.870;2023-06-19T09:58:39;101363.97;;;26.43;45.74
51496;BME280;37572;52.094;4.870;2023-06-19T10:01:06;101377.47;;;26.49;45.87
51496;BME280;37572;52.094;4.870;2023-06-19T10:03:33;101367.78;;;26.58;45.83
51496;BME280;37572;52.094;4.870;2023-06-19T10:06:02;101360.09;;;26.72;46.23
51496;BME280;37572;52.094;4.870;2023-06-19T10:08:30;101372.88;;;26.89;45.46
51496;BME280;37572;52.094;4.870;2023-06-19T10:10:55;101373.59;;;27.01;44.98
51496;BME280;37572;52.094;4.870;2023-06-19T10:13:31;101369.03;;;27.07;44.72
51496;BME280;37572;52.094;4.870;2023-06-19T10:15:57;101364.69;;;27.11;44.78
51496;BME280;37572;52.094;4.870;2023-06-19T10:18:22;101374.63;;;27.17;44.77
51496;BME280;37572;52.094;4.870;2023-06-19T10:20:50;101373.63;;;27.23;44.52
51496;BME280;37572;52.094;4.870;2023-06-19T10:23:17;101367.91;;;27.25;44.04
51496;BME280;37572;52.094;4.870;2023-06-19T10:25:48;101376.41;;;27.28;43.81
51496;BME280;37572;52.094;4.870;2023-06-19T10:28:28;101366.63;;;27.32;43.75
51496;BME280;37572;52.094;4.870;2023-06-19T10:30:57;101360.47;;;27.42;44.08
51496;BME280;37572;52.094;4.870;2023-06-19T10:33:28;101364.97;;;27.54;44.26
51496;BME280;37572;52.094;4.870;2023-06-19T10:35:54;101365.84;;;27.59;43.09
51496;BME280;37572;52.094;4.870;2023-06-19T10:38:19;101366.31;;;27.51;43.20
51496;BME280;37572;52.094;4.870;2023-06-19T10:40:45;101377.97;;;27.41;42.84
51496;BME280;37572;52.094;4.870;2023-06-19T10:43:12;101374.84;;;27.32;43.26
51496;BME280;37572;52.094;4.870;2023-06-19T10:45:38;101378.53;;;27.21;43.53
51496;BME280;37572;52.094;4.870;2023-06-19T10:48:04;101368.53;;;27.10;43.36
51496;BME280;37572;52.094;4.870;2023-06-19T10:50:30;101372.84;;;27.06;43.82
51496;BME280;37572;52.094;4.870;2023-06-19T10:52:59;101363.94;;;27.16;44.20
51496;BME280;37572;52.094;4.870;2023-06-19T10:55:24;101374.03;;;27.32;43.63
51496;BME280;37572;52.094;4.870;2023-06-19T10:57:50;101367.91;;;27.47;43.84
51496;BME280;37572;52.094;4.870;2023-06-19T11:00:25;101361.22;;;27.60;43.04
51496;BME280;37572;52.094;4.870;2023-06-19T11:02:51;101365.34;;;27.62;43.13
51496;BME280;37572;52.094;4.870;2023-06-19T11:05:19;101358.50;;;27.60;42.37
51496;BME280;37572;52.094;4.870;2023-06-19T11:07:59;101355.50;;;27.61;42.51
51496;BME280;37572;52.094;4.870;2023-06-19T11:10:26;101357.19;;;27.67;42.28
51496;BME280;37572;52.094;4.870;2023-06-19T11:12:56;101361.31;;;27.70;42.32
51496;BME280;37572;52.094;4.870;2023-06-19T11:15:33;101359.97;;;27.73;42.29
51496;BME280;37572;52.094;4.870;2023-06-19T11:18:00;101356.72;;;27.76;42.27
51496;BME280;37572;52.094;4.870;2023-06-19T11:20:25;101356.22;;;27.79;42.33
51496;BME280;37572;52.094;4.870;2023-06-19T11:22:55;101356.25;;;27.84;41.86
51496;BME280;37572;52.094;4.870;2023-06-19T11:25:21;101352.81;;;27.94;41.54
51496;BME280;37572;52.094;4.870;2023-06-19T11:27:47;101360.31;;;28.03;41.45
51496;BME280;37572;52.094;4.870;2023-06-19T11:30:29;101359.59;;;28.18;42.04
51496;BME280;37572;52.094;4.870;2023-06-19T11:32:55;101369.84;;;28.33;41.37
51496;BME280;37572;52.094;4.870;2023-06-19T11:35:20;101362.50;;;28.39;41.79
51496;BME280;37572;52.094;4.870;2023-06-19T11:37:47;101364.44;;;28.43;40.89
51496;BME280;37572;52.094;4.870;2023-06-19T11:40:13;101363.97;;;28.52;40.45
51496;BME280;37572;52.094;4.870;2023-06-19T11:42:47;101362.69;;;28.59;39.66
51496;BME280;37572;52.094;4.870;2023-06-19T11:45:13;101359.41;;;28.68;39.85
51496;BME280;37572;52.094;4.870;2023-06-19T11:47:39;101370.75;;;28.82;39.84
51496;BME280;37572;52.094;4.870;2023-06-19T11:50:05;101363.75;;;29.01;39.85
51496;BME280;37572;52.094;4.870;2023-06-19T11:52:31;101364.66;;;29.17;39.75
51496;BME280;37572;52.094;4.870;2023-06-19T11:54:56;101359.50;;;29.36;40.05
51496;BME280;37572;52.094;4.870;2023-06-19T11:57:21;101367.53;;;29.63;39.92
51496;BME280;37572;52.094;4.870;2023-06-19T11:59:47;101361.03;;;29.90;38.52
51496;BME280;37572;52.094;4.870;2023-06-19T12:02:12;101367.63;;;30.10;38.46
51496;BME280;37572;52.094;4.870;2023-06-19T12:04:38;101373.69;;;30.37;38.10
51496;BME280;37572;52.094;4.870;2023-06-19T12:07:03;101372.84;;;30.52;37.31
51496;BME280;37572;52.094;4.870;2023-06-19T12:09:30;101364.31;;;30.59;37.26
51496;BME280;37572;52.094;4.870;2023-06-19T12:11:55;101374.72;;;30.72;36.87
51496;BME280;37572;52.094;4.870;2023-06-19T12:14:21;101370.81;;;30.94;36.52
51496;BME280;37572;52.094;4.870;2023-06-19T12:16:46;101370.19;;;31.17;36.29
51496;BME280;37572;52.094;4.870;2023-06-19T12:19:12;101378.69;;;31.31;35.37
51496;BME280;37572;52.094;4.870;2023-06-19T12:21:37;101372.59;;;31.40;35.08
51496;BME280;37572;52.094;4.870;2023-06-19T12:24:03;101382.16;;;31.52;34.63
51496;BME280;37572;52.094;4.870;2023-06-19T12:26:28;101375.28;;;31.50;34.88
51496;BME280;37572;52.094;4.870;2023-06-19T12:28:54;101382.78;;;31.34;34.86
51496;BME280;37572;52.094;4.870;2023-06-19T12:31:19;101372.41;;;31.15;35.04
51496;BME280;37572;52.094;4.870;2023-06-19T12:33:44;101373.81;;;31.13;35.35
51496;BME280;37572;52.094;4.870;2023-06-19T12:36:10;101379.63;;;31.06;34.69
51496;BME280;37572;52.094;4.870;2023-06-19T12:38:38;101377.72;;;30.96;34.61
51496;BME280;37572;52.094;4.870;2023-06-19T12:41:04;101379.88;;;30.89;34.52
51496;BME280;37572;52.094;4.870;2023-06-19T12:43:29;101379.63;;;30.86;34.88
51496;BME280;37572;52.094;4.870;2023-06-19T12:45:57;101381.28;;;30.97;35.15